MDT,Max TemperatureF,Mean TemperatureF,Min TemperatureF,Max Dew PointF,MeanDew PointF,Min DewpointF,Max Humidity, Mean Humidity, Min Humidity, Max Sea Level PressureIn, Mean Sea Level PressureIn, Min Sea Level PressureIn, Max VisibilityMiles, Mean VisibilityMiles, Min VisibilityMiles, Max Wind SpeedMPH, Mean Wind SpeedMPH, Max Gust SpeedMPH,PrecipitationIn, CloudCover, Events, WindDirDegrees
2011-10-1,87,68,48,45,38,32,82,39,15,30.22,30.17,30.10,10,10,3,17,4,24,0.00,1,,127
2011-10-2,84,66,48,45,40,37,71,41,19,30.19,30.15,30.08,10,10,7,9,4,,0.00,1,,349
2011-10-3,82,68,53,45,40,37,63,40,20,30.23,30.14,30.06,10,10,10,10,5,16,0.00,0,,133
2011-10-4,82,66,51,43,40,36,67,41,20,30.06,29.97,29.85,10,10,8,14,5,18,0.00,1,,148
2011-10-5,77,64,50,45,42,39,71,50,27,29.85,29.76,29.62,10,10,10,10,6,16,0.00,0,,39
2011-10-6,77,62,46,45,35,18,72,45,20,29.71,29.53,29.36,10,10,10,30,9,39,0.00,1,,303
2011-10-7,66,54,41,19,15,10,39,24,12,29.89,29.82,29.75,10,10,10,23,13,31,0.00,0,,227
2011-10-8,51,45,39,37,31,19,87,63,28,30.11,30.00,29.88,10,10,5,29,15,36,0.34,8,,351
2011-10-9,55,48,42,39,34,30,76,62,44,30.20,30.14,30.05,10,10,10,16,9,16,0.00,7,,25
2011-10-10,66,50,35,43,35,28,100,63,26,30.07,29.97,29.89,10,9,0,12,4,17,0.00,1,,111
2011-10-11,69,56,44,39,35,28,76,49,23,29.92,29.87,29.80,10,10,8,20,6,29,0.00,4,,36
2011-10-12,68,58,48,36,29,25,51,34,21,30.11,30.05,29.94,10,10,10,23,14,32,0.00,1,,270
2011-10-13,75,56,37,36,30,28,70,45,18,30.12,30.04,29.95,10,10,10,16,6,,0.00,1,,41
2011-10-14,64,52,41,41,33,28,76,49,32,30.12,30.08,30.06,10,10,7,9,3,,0.00,1,,59
2011-10-15,84,62,39,43,34,27,87,47,13,30.09,30.02,29.93,10,10,10,17,4,30,0.00,0,,303
2011-10-16,62,50,39,37,36,34,81,57,39,30.21,30.11,30.03,10,10,10,16,8,,0.00,0,,85
2011-10-17,57,47,37,43,35,28,87,64,38,30.28,30.10,29.92,10,10,9,32,10,41,0.05,4,,23
2011-10-18,59,47,35,36,27,21,93,54,23,30.39,30.32,30.27,10,10,10,26,8,33,0.00,1,,352
2011-10-19,60,44,28,28,26,25,86,50,25,30.31,30.15,30.02,10,10,10,12,5,,0.00,0,,135
2011-10-20,73,53,33,30,26,21,75,42,16,30.13,30.02,29.96,10,10,10,18,7,23,0.00,0,,69
2011-10-21,71,54,37,37,29,25,65,41,20,30.20,30.16,30.12,10,10,10,13,5,,0.00,0,,63
2011-10-22,69,56,44,37,33,30,71,42,23,30.19,30.16,30.12,10,10,10,12,5,,0.00,1,,139
2011-10-23,73,56,39,37,29,23,70,42,17,30.19,30.14,30.09,10,10,10,9,5,,0.00,0,,155
2011-10-24,77,59,41,32,26,19,57,34,12,30.13,29.99,29.87,10,10,5,15,5,20,0.00,0,,291
2011-10-25,66,50,33,34,30,25,93,50,24,30.22,30.04,29.89,10,9,1,17,10,28,0.04,5,,356
2011-10-26,32,26,19,30,26,18,100,92,86,30.26,30.23,30.20,10,4,0,15,8,16,0.10,7,,5
2011-10-27,37,24,12,28,19,10,100,88,69,30.19,30.15,30.10,10,5,0,8,4,,0.03,4,,33
2011-10-28,41,29,17,28,24,12,100,77,56,30.30,30.22,30.12,10,8,0,8,3,,0.00,1,,132
2011-10-29,57,42,28,32,28,21,86,61,31,30.14,30.00,29.91,10,10,10,16,5,18,0.00,0,,59
2011-10-30,57,44,32,37,31,28,87,69,44,30.23,30.18,30.13,10,10,10,8,4,,0.00,0,,181
2011-10-31,69,51,33,41,33,28,87,56,27,30.13,30.01,29.94,10,10,4,10,4,,0.00,0,,148